createdAt,value
2019-05-11T00:02:00.318Z,98865.80
2019-05-11T00:04:28.601Z,98860.89
2019-05-11T00:06:56.698Z,98857.46
2019-05-11T00:09:24.886Z,98844.98
2019-05-11T00:11:53.106Z,98838.66
2019-05-11T00:14:21.468Z,98840.36
2019-05-11T00:16:49.607Z,98839.05
2019-05-11T00:19:17.373Z,98841.33
2019-05-11T00:21:45.188Z,98842.34
2019-05-11T00:24:12.979Z,98838.03
2019-05-11T00:26:40.739Z,98832.37
2019-05-11T00:29:08.586Z,98834.23
2019-05-11T00:31:46.481Z,98837.61
2019-05-11T00:34:14.295Z,98829.67
2019-05-11T00:36:42.017Z,98836.52
2019-05-11T00:39:09.807Z,98836.23
2019-05-11T00:41:37.778Z,98833.14
2019-05-11T00:44:05.548Z,98829.09
2019-05-11T00:46:33.325Z,98836.84
2019-05-11T00:49:01.162Z,98832.17
2019-05-11T00:51:29.144Z,98832.77
2019-05-11T00:53:56.924Z,98829.77
2019-05-11T00:56:24.715Z,98829.94
2019-05-11T00:58:52.513Z,98827.52
2019-05-11T01:01:20.573Z,98821.47
2019-05-11T01:03:48.342Z,98821.06
2019-05-11T01:06:16.112Z,98817.58
2019-05-11T01:08:43.874Z,98821.53
2019-05-11T01:11:16.836Z,98823.48
2019-05-11T01:13:44.587Z,98824.66
2019-05-11T01:16:12.331Z,98810.34
2019-05-11T01:18:40.126Z,98806.69
2019-05-11T01:21:08.178Z,98827.92
2019-05-11T01:23:35.943Z,98832.70
2019-05-11T01:26:03.725Z,98823.38
2019-05-11T01:28:31.496Z,98819.37
2019-05-11T01:30:59.249Z,98813.72
2019-05-11T01:33:27.027Z,98807.84
2019-05-11T01:35:54.842Z,98804.30
2019-05-11T01:38:22.656Z,98804.44
2019-05-11T01:40:58.672Z,98812.02
2019-05-11T01:43:20.039Z,98816.56
2019-05-11T01:45:47.783Z,98812.02
2019-05-11T01:48:15.616Z,98805.98
2019-05-11T01:50:43.408Z,98807.56
2019-05-11T01:53:11.188Z,98812.75
2019-05-11T01:55:38.948Z,98804.60
2019-05-11T01:58:06.710Z,98786.83
2019-05-11T02:00:34.475Z,98801.54
2019-05-11T02:03:02.193Z,98791.22
2019-05-11T02:05:30.684Z,98786.27
2019-05-11T02:08:01.074Z,98790.53
2019-05-11T02:10:29.158Z,98783.30
2019-05-11T02:12:57.107Z,98774.95
2019-05-11T02:15:24.917Z,98765.14
2019-05-11T02:17:54.072Z,98754.30
2019-05-11T02:20:21.931Z,98742.41
2019-05-11T02:22:49.662Z,98736.77
2019-05-11T02:25:17.734Z,98747.38
2019-05-11T02:27:45.491Z,98741.63
2019-05-11T02:30:13.467Z,98737.67
2019-05-11T02:32:41.410Z,98730.98
2019-05-11T02:35:10.378Z,98735.66
2019-05-11T02:37:38.115Z,98733.88
2019-05-11T02:40:07.436Z,98735.84
2019-05-11T02:42:35.158Z,98733.73
2019-05-11T02:45:03.199Z,98741.61
2019-05-11T02:47:33.561Z,98747.18
2019-05-11T02:50:01.732Z,98747.18
2019-05-11T02:53:00.154Z,98745.51
2019-05-11T02:55:28.381Z,98745.33
2019-05-11T02:57:56.443Z,98747.58
2019-05-11T03:00:40.913Z,98750.30
2019-05-11T03:03:39.252Z,98749.88
2019-05-11T03:06:07.043Z,98734.31
2019-05-11T03:08:34.748Z,98728.27
2019-05-11T03:11:02.509Z,98709.09
2019-05-11T03:13:30.239Z,98704.79
2019-05-11T03:15:58.031Z,98705.17
2019-05-11T03:18:25.774Z,98696.48
2019-05-11T03:20:53.573Z,98694.55
2019-05-11T03:23:21.373Z,98682.07
2019-05-11T03:25:49.105Z,98673.05
2019-05-11T03:28:16.867Z,98661.34
2019-05-11T03:30:44.584Z,98663.30
2019-05-11T03:33:12.299Z,98669.19
2019-05-11T03:35:40.077Z,98681.70
2019-05-11T03:38:07.801Z,98706.08
2019-05-11T03:40:35.551Z,98719.52
2019-05-11T03:43:13.430Z,98723.88
2019-05-11T03:45:41.229Z,98732.03
2019-05-11T03:48:09.084Z,98728.20
2019-05-11T03:50:36.889Z,98716.73
2019-05-11T03:53:04.615Z,98710.95
2019-05-11T03:55:32.410Z,98695.55
2019-05-11T03:58:00.197Z,98685.30
2019-05-11T04:00:27.994Z,98677.53
2019-05-11T04:03:26.633Z,98679.42
2019-05-11T04:05:54.413Z,98675.29
2019-05-11T04:08:22.132Z,98677.94
2019-05-11T04:10:49.961Z,98677.94
2019-05-11T04:13:17.914Z,98690.36
2019-05-11T04:15:45.661Z,98693.33
2019-05-11T04:18:13.386Z,98687.05
2019-05-11T04:20:41.165Z,98681.66
2019-05-11T04:23:20.670Z,98668.09
2019-05-11T04:25:48.435Z,98659.62
2019-05-11T04:28:16.178Z,98656.86
2019-05-11T04:30:43.947Z,98647.55
2019-05-11T04:33:11.697Z,98645.92
2019-05-11T04:35:39.485Z,98634.37
2019-05-11T04:38:07.236Z,98623.75
2019-05-11T04:40:34.968Z,98622.20
2019-05-11T04:43:09.115Z,98614.54
2019-05-11T04:45:36.902Z,98618.03
2019-05-11T04:48:04.686Z,98619.75
2019-05-11T04:50:32.453Z,98606.78
2019-05-11T04:53:00.195Z,98604.86
2019-05-11T04:55:27.960Z,98595.65
2019-05-11T04:57:55.681Z,98587.61
2019-05-11T05:00:25.559Z,98589.42
2019-05-11T05:02:55.653Z,98580.73
2019-05-11T05:05:23.434Z,98580.10
2019-05-11T05:07:51.129Z,98581.39
2019-05-11T05:10:22.071Z,98578.08
2019-05-11T05:12:51.478Z,98581.16
2019-05-11T05:15:18.401Z,98576.13
2019-05-11T05:17:46.232Z,98588.25
2019-05-11T05:20:14.739Z,98592.34
2019-05-11T05:22:42.906Z,98594.61
2019-05-11T05:25:12.053Z,98592.95
2019-05-11T05:27:39.842Z,98592.22
2019-05-11T05:30:08.273Z,98585.97
2019-05-11T05:32:36.847Z,98587.09
2019-05-11T05:35:04.696Z,98583.45
2019-05-11T05:37:32.556Z,98584.17
2019-05-11T05:40:00.360Z,98580.48
2019-05-11T05:42:28.157Z,98588.25
2019-05-11T05:44:55.979Z,98586.11
2019-05-11T05:47:23.718Z,98595.30
2019-05-11T05:49:51.581Z,98590.05
2019-05-11T05:52:19.536Z,98576.06
2019-05-11T05:54:47.343Z,98580.36
2019-05-11T05:57:15.182Z,98571.34
2019-05-11T05:59:43.890Z,98560.31
2019-05-11T06:02:11.653Z,98555.08
2019-05-11T06:04:39.454Z,98557.70
2019-05-11T06:07:07.185Z,98553.23
2019-05-11T06:09:34.973Z,98557.78
2019-05-11T06:12:02.731Z,98552.80
2019-05-11T06:14:30.532Z,98550.55
2019-05-11T06:16:58.302Z,98550.93
2019-05-11T06:19:26.111Z,98554.06
2019-05-11T06:21:53.919Z,98562.91
2019-05-11T06:24:21.740Z,98561.67
2019-05-11T06:26:49.579Z,98553.89
2019-05-11T06:29:21.089Z,98551.48
2019-05-11T06:31:47.102Z,98540.78
2019-05-11T06:34:14.875Z,98547.69
2019-05-11T06:36:44.104Z,98540.21
2019-05-11T06:39:11.968Z,98540.06
2019-05-11T06:41:39.959Z,98545.59
2019-05-11T06:44:07.785Z,98559.30
2019-05-11T06:46:35.518Z,98569.63
2019-05-11T06:49:03.412Z,98578.77
2019-05-11T06:51:31.422Z,98582.50
2019-05-11T06:54:00.600Z,98574.84
2019-05-11T06:56:28.436Z,98581.39
2019-05-11T06:58:56.282Z,98569.22
2019-05-11T07:01:24.310Z,98551.20
2019-05-11T07:03:52.094Z,98539.08
2019-05-11T07:06:19.892Z,98551.86
2019-05-11T07:08:47.638Z,98556.87
2019-05-11T07:11:15.442Z,98563.13
2019-05-11T07:13:43.241Z,98568.16
2019-05-11T07:16:10.996Z,98565.39
2019-05-11T07:18:38.783Z,98557.75
2019-05-11T07:21:08.026Z,98556.75
2019-05-11T07:23:35.805Z,98562.95
2019-05-11T07:26:03.571Z,98564.11
2019-05-11T07:28:31.436Z,98565.10
2019-05-11T07:30:59.364Z,98564.01
2019-05-11T07:33:28.707Z,98555.70
2019-05-11T07:35:58.270Z,98555.59
2019-05-11T07:38:27.869Z,98558.81
2019-05-11T07:40:58.058Z,98562.30
2019-05-11T07:43:25.500Z,98562.57
2019-05-11T07:45:53.278Z,98559.87
2019-05-11T07:48:21.097Z,98552.16
2019-05-11T07:50:48.948Z,98561.08
2019-05-11T07:53:18.639Z,98556.02
2019-05-11T07:55:48.527Z,98551.91
2019-05-11T07:58:19.848Z,98539.99
2019-05-11T08:00:45.848Z,98529.92
2019-05-11T08:03:13.653Z,98554.79
2019-05-11T08:05:41.474Z,98553.35
2019-05-11T08:08:09.282Z,98556.92
2019-05-11T08:10:39.105Z,98550.26
2019-05-11T08:13:09.050Z,98548.72
2019-05-11T08:15:38.242Z,98544.82
2019-05-11T08:18:08.526Z,98546.64
2019-05-11T08:20:38.572Z,98555.83
2019-05-11T08:23:08.914Z,98562.66
2019-05-11T08:25:37.963Z,98561.31
2019-05-11T08:28:11.526Z,98553.13
2019-05-11T08:30:38.118Z,98552.60
2019-05-11T08:33:08.636Z,98555.91
2019-05-11T08:35:38.986Z,98549.91
2019-05-11T08:38:28.553Z,98548.95
2019-05-11T08:40:58.847Z,98544.19
2019-05-11T08:43:28.535Z,98550.06
2019-05-11T08:45:57.838Z,98548.81
2019-05-11T08:48:28.209Z,98543.92
2019-05-11T08:50:58.002Z,98545.98
2019-05-11T08:53:25.401Z,98546.70
2019-05-11T08:55:53.212Z,98555.48
2019-05-11T08:58:20.985Z,98565.81
2019-05-11T09:00:49.393Z,98574.14
2019-05-11T09:03:17.892Z,98574.64
2019-05-11T09:05:48.423Z,98564.17
2019-05-11T09:08:15.767Z,98564.85
2019-05-11T09:10:43.609Z,98564.20
2019-05-11T09:13:36.051Z,98562.42
2019-05-11T09:16:03.902Z,98578.59
2019-05-11T09:18:31.686Z,98574.30
2019-05-11T09:20:59.493Z,98573.30
2019-05-11T09:23:34.703Z,98577.45
2019-05-11T09:25:58.333Z,98573.96
2019-05-11T09:28:26.377Z,98575.17
2019-05-11T09:30:54.156Z,98589.59
2019-05-11T09:33:21.961Z,98592.37
2019-05-11T09:35:53.109Z,98601.66
2019-05-11T09:38:19.483Z,98617.05
2019-05-11T09:40:47.995Z,98621.50
2019-05-11T09:43:17.861Z,98617.88
2019-05-11T09:45:48.732Z,98611.28
2019-05-11T09:48:15.261Z,98595.28
2019-05-11T09:50:43.147Z,98594.85
2019-05-11T09:53:10.940Z,98601.19
2019-05-11T09:55:39.010Z,98600.98
2019-05-11T09:58:08.478Z,98607.71
2019-05-11T10:00:38.749Z,98608.17
2019-05-11T10:03:11.362Z,98616.47
2019-05-11T10:05:39.162Z,98621.66
2019-05-11T10:08:08.818Z,98624.32
2019-05-11T10:10:38.347Z,98627.29
2019-05-11T10:13:08.067Z,98636.16
2019-05-11T10:15:38.367Z,98644.27
2019-05-11T10:18:08.033Z,98633.23
2019-05-11T10:20:35.406Z,98635.28
2019-05-11T10:23:03.162Z,98629.82
2019-05-11T10:25:32.038Z,98640.33
2019-05-11T10:27:59.889Z,98638.25
2019-05-11T10:30:28.184Z,98647.48
2019-05-11T10:32:57.817Z,98634.63
2019-05-11T10:35:25.937Z,98645.23
2019-05-11T10:37:53.671Z,98649.31
2019-05-11T10:40:21.462Z,98633.09
2019-05-11T10:42:51.073Z,98635.81
2019-05-11T10:45:18.878Z,98640.78
2019-05-11T10:47:48.742Z,98637.38
2019-05-11T10:50:18.571Z,98649.61
2019-05-11T10:52:48.230Z,98649.07
2019-05-11T10:55:19.010Z,98631.14
2019-05-11T10:57:45.641Z,98632.48
2019-05-11T11:00:13.650Z,98629.73
2019-05-11T11:02:41.426Z,98612.33
2019-05-11T11:05:09.732Z,98616.78
2019-05-11T11:07:38.428Z,98607.14
2019-05-11T11:10:08.817Z,98610.84
2019-05-11T11:12:38.539Z,98616.94
2019-05-11T11:15:07.937Z,98608.45
2019-05-11T11:17:37.979Z,98614.99
2019-05-11T11:20:05.531Z,98608.98
2019-05-11T11:22:40.172Z,98614.08
2019-05-11T11:25:03.266Z,98616.29
2019-05-11T11:27:31.078Z,98613.24
2019-05-11T11:29:59.872Z,98615.94
2019-05-11T11:32:28.055Z,98614.77
2019-05-11T11:34:57.789Z,98622.44
2019-05-11T11:37:27.946Z,98627.31
2019-05-11T11:39:55.466Z,98627.49
2019-05-11T11:42:23.314Z,98620.95
2019-05-11T11:44:51.142Z,98620.12
2019-05-11T11:47:21.582Z,98613.61
2019-05-11T11:49:48.669Z,98616.38
2019-05-11T11:52:18.661Z,98609.78
2019-05-11T11:54:47.936Z,98597.11
2019-05-11T11:57:18.053Z,98604.89
2019-05-11T11:59:47.913Z,98606.61
2019-05-11T12:02:15.205Z,98605.27
2019-05-11T12:04:43.027Z,98611.48
2019-05-11T12:07:11.135Z,98611.98
2019-05-11T12:09:38.925Z,98614.08
2019-05-11T12:12:08.407Z,98616.68
2019-05-11T12:14:38.337Z,98621.86
2019-05-11T12:17:08.649Z,98624.52
2019-05-11T12:19:38.135Z,98621.79
2019-05-11T12:22:05.517Z,98631.53
2019-05-11T12:24:33.324Z,98632.25
2019-05-11T12:27:01.131Z,98635.03
2019-05-11T12:29:28.968Z,98640.50
2019-05-11T12:31:59.545Z,98642.05
2019-05-11T12:34:28.358Z,98653.29
2019-05-11T12:36:58.087Z,98652.52
2019-05-11T12:39:28.204Z,98663.38
2019-05-11T12:41:58.029Z,98658.27
2019-05-11T12:44:25.478Z,98664.25
2019-05-11T12:46:53.840Z,98656.49
2019-05-11T12:49:21.664Z,98667.48
2019-05-11T12:51:49.537Z,98668.86
2019-05-11T12:54:18.743Z,98661.34
2019-05-11T12:56:48.892Z,98657.38
2019-05-11T12:59:18.593Z,98656.02
2019-05-11T13:01:48.407Z,98655.39
2019-05-11T13:04:18.073Z,98656.02
2019-05-11T13:06:47.740Z,98662.06
2019-05-11T13:09:15.357Z,98670.95
2019-05-11T13:11:43.137Z,98673.11
2019-05-11T13:14:10.941Z,98682.92
2019-05-11T13:16:38.796Z,98689.67
2019-05-11T13:19:08.338Z,98693.05
2019-05-11T13:21:38.233Z,98699.91
2019-05-11T13:24:08.157Z,98702.47
2019-05-11T13:26:37.956Z,98712.33
2019-05-11T13:29:07.731Z,98713.70
2019-05-11T13:31:35.569Z,98715.27
2019-05-11T13:34:03.404Z,98709.05
2019-05-11T13:36:31.258Z,98715.23
2019-05-11T13:38:59.083Z,98733.31
2019-05-11T13:41:28.022Z,98730.80
2019-05-11T13:43:57.686Z,98731.08
2019-05-11T13:46:25.744Z,98725.38
2019-05-11T13:48:53.512Z,98714.83
2019-05-11T13:51:21.619Z,98714.06
2019-05-11T13:53:49.393Z,98720.13
2019-05-11T13:56:18.311Z,98705.76
2019-05-11T13:58:48.547Z,98704.67
2019-05-11T14:01:18.322Z,98712.20
2019-05-11T14:03:48.104Z,98731.59
2019-05-11T14:06:18.402Z,98738.02
2019-05-11T14:08:47.575Z,98731.88
2019-05-11T14:11:17.896Z,98728.33
2019-05-11T14:13:45.119Z,98724.28
2019-05-11T14:16:12.952Z,98724.04
2019-05-11T14:18:40.734Z,98725.45
2019-05-11T14:21:08.490Z,98728.85
2019-05-11T14:23:38.653Z,98725.81
2019-05-11T14:26:06.158Z,98734.27
2019-05-11T14:28:37.584Z,98752.59
2019-05-11T14:31:05.366Z,98759.61
2019-05-11T14:33:33.247Z,98769.80
2019-05-11T14:36:00.993Z,98772.20
2019-05-11T14:38:29.075Z,98777.22
2019-05-11T14:40:58.578Z,98786.11
2019-05-11T14:43:27.756Z,98782.10
2019-05-11T14:45:57.755Z,98788.88
2019-05-11T14:48:27.674Z,98793.79
2019-05-11T14:50:55.549Z,98790.41
2019-05-11T14:53:23.337Z,98798.95
2019-05-11T14:55:51.120Z,98809.36
2019-05-11T14:58:20.020Z,98819.00
2019-05-11T15:00:48.778Z,98810.85
2019-05-11T15:03:18.186Z,98805.78
2019-05-11T15:05:47.808Z,98814.09
2019-05-11T15:08:17.856Z,98819.25
2019-05-11T15:10:45.605Z,98833.11
2019-05-11T15:13:13.428Z,98849.52
2019-05-11T15:15:41.661Z,98860.69
2019-05-11T15:18:09.484Z,98868.91
2019-05-11T15:20:38.773Z,98885.00
2019-05-11T15:23:08.614Z,98892.22
2019-05-11T15:25:38.195Z,98902.16
2019-05-11T15:28:08.662Z,98905.27
2019-05-11T15:30:37.837Z,98909.17
2019-05-11T15:33:07.568Z,98912.00
2019-05-11T15:35:37.548Z,98913.36
2019-05-11T15:38:08.541Z,98909.20
2019-05-11T15:40:38.121Z,98913.22
2019-05-11T15:43:08.736Z,98933.16
2019-05-11T15:45:38.101Z,98943.18
2019-05-11T15:48:08.482Z,98950.67
2019-05-11T15:50:39.758Z,98960.41
2019-05-11T15:53:08.614Z,98964.58
2019-05-11T15:55:38.523Z,98970.23
2019-05-11T15:58:05.562Z,98972.14
2019-05-11T16:00:33.736Z,98978.91
2019-05-11T16:03:01.532Z,98990.49
2019-05-11T16:05:29.326Z,99004.67
2019-05-11T16:08:01.403Z,99018.32
2019-05-11T16:10:27.871Z,99030.34
2019-05-11T16:13:11.098Z,99039.81
2019-05-11T16:15:38.928Z,99047.46
2019-05-11T16:18:08.320Z,99046.37
2019-05-11T16:20:36.312Z,99052.89
2019-05-11T16:23:04.164Z,99053.22
2019-05-11T16:25:31.987Z,99060.09
2019-05-11T16:27:59.753Z,99065.79
2019-05-11T16:30:28.856Z,99077.83
2019-05-11T16:32:58.085Z,99079.23
2019-05-11T16:35:27.993Z,99084.04
2019-05-11T16:37:55.836Z,99086.64
2019-05-11T16:40:23.630Z,99093.66
2019-05-11T16:42:51.414Z,99095.24
2019-05-11T16:45:19.518Z,99099.61
2019-05-11T16:47:48.293Z,99106.41
2019-05-11T16:50:18.017Z,99109.22
2019-05-11T16:52:48.135Z,99111.48
2019-05-11T16:55:18.200Z,99123.23
2019-05-11T16:57:48.032Z,99132.30
2019-05-11T17:00:15.871Z,99139.27
2019-05-11T17:02:43.752Z,99151.66
2019-05-11T17:05:25.291Z,99157.81
2019-05-11T17:07:41.313Z,99169.23
2019-05-11T17:10:09.937Z,99175.28
2019-05-11T17:12:38.528Z,99184.28
2019-05-11T17:15:08.811Z,99191.69
2019-05-11T17:17:36.903Z,99199.77
2019-05-11T17:20:05.247Z,99199.70
2019-05-11T17:22:33.024Z,99199.59
2019-05-11T17:25:00.817Z,99214.72
2019-05-11T17:27:28.685Z,99224.18
2019-05-11T17:29:56.465Z,99226.49
2019-05-11T17:32:24.645Z,99230.14
2019-05-11T17:34:52.859Z,99241.16
2019-05-11T17:37:40.498Z,99242.81
2019-05-11T17:40:09.133Z,99247.13
2019-05-11T17:42:37.876Z,99258.58
2019-05-11T17:45:08.057Z,99260.13
2019-05-11T17:47:35.926Z,99262.65
2019-05-11T17:50:07.935Z,99271.31
2019-05-11T17:52:34.992Z,99276.59
2019-05-11T17:55:03.702Z,99279.41
2019-05-11T17:57:31.540Z,99283.23
2019-05-11T18:00:02.147Z,99293.02
2019-05-11T18:02:39.004Z,99296.82
2019-05-11T18:05:08.967Z,99306.80
2019-05-11T18:07:38.583Z,99316.36
2019-05-11T18:10:08.208Z,99317.34
2019-05-11T18:12:51.273Z,99323.42
2019-05-11T18:15:19.380Z,99323.00
2019-05-11T18:17:48.402Z,99325.00
2019-05-11T18:20:21.122Z,99327.52
2019-05-11T18:22:49.146Z,99330.86
2019-05-11T18:25:18.314Z,99343.84
2019-05-11T18:27:48.235Z,99354.12
2019-05-11T18:30:16.300Z,99367.69
2019-05-11T18:33:00.137Z,99374.39
2019-05-11T18:35:28.013Z,99379.64
2019-05-11T18:37:55.884Z,99385.81
2019-05-11T18:40:43.932Z,99399.86
2019-05-11T18:43:11.858Z,99414.66
2019-05-11T18:45:39.860Z,99419.13
2019-05-11T18:48:08.145Z,99390.39
2019-05-11T18:50:38.238Z,99433.24
2019-05-11T18:53:05.882Z,99446.98
2019-05-11T18:55:33.640Z,99458.39
2019-05-11T18:58:01.373Z,99468.78
2019-05-11T19:00:29.214Z,99482.79
2019-05-11T19:02:58.018Z,99486.45
2019-05-11T19:05:25.983Z,99494.36
2019-05-11T19:07:53.751Z,99500.02
2019-05-11T19:10:21.558Z,99500.69
2019-05-11T19:12:49.421Z,99509.09
2019-05-11T19:15:18.753Z,99511.39
2019-05-11T19:17:49.013Z,99517.86
2019-05-11T19:20:18.521Z,99527.33
2019-05-11T19:22:46.450Z,99535.10
2019-05-11T19:25:14.256Z,99535.27
2019-05-11T19:27:42.235Z,99540.72
2019-05-11T19:30:10.264Z,99551.23
2019-05-11T19:32:38.529Z,99557.19
2019-05-11T19:35:08.664Z,99563.47
2019-05-11T19:37:38.494Z,99567.10
2019-05-11T19:40:26.044Z,99572.84
2019-05-11T19:42:54.714Z,99580.41
2019-05-11T19:45:22.643Z,99579.29
2019-05-11T19:47:50.450Z,99581.26
2019-05-11T19:50:18.263Z,99599.23
2019-05-11T19:52:48.386Z,99601.37
2019-05-11T19:55:17.886Z,99615.19
2019-05-11T19:57:48.274Z,99621.77
2019-05-11T20:00:18.461Z,99630.34
2019-05-11T20:02:46.702Z,99630.00
2019-05-11T20:05:14.697Z,99631.83
2019-05-11T20:07:42.557Z,99636.43
2019-05-11T20:10:10.950Z,99641.88
2019-05-11T20:12:41.744Z,99646.32
2019-05-11T20:15:09.091Z,99650.30
2019-05-11T20:17:39.232Z,99651.78
2019-05-11T20:20:08.894Z,99660.33
2019-05-11T20:22:38.970Z,99673.19
2019-05-11T20:25:10.194Z,99679.94
2019-05-11T20:27:38.784Z,99680.59
2019-05-11T20:30:08.626Z,99687.83
2019-05-11T20:32:38.700Z,99689.65
2019-05-11T20:35:08.453Z,99698.01
2019-05-11T20:37:38.301Z,99706.89
2019-05-11T20:40:06.169Z,99719.87
2019-05-11T20:42:34.374Z,99726.77
2019-05-11T20:45:02.288Z,99725.27
2019-05-11T20:47:32.897Z,99725.11
2019-05-11T20:50:00.921Z,99731.00
2019-05-11T20:52:28.812Z,99732.66
2019-05-11T20:54:58.315Z,99740.70
2019-05-11T20:57:28.350Z,99739.89
2019-05-11T20:59:57.584Z,99747.77
2019-05-11T21:02:26.537Z,99751.54
2019-05-11T21:04:55.504Z,99761.41
2019-05-11T21:07:23.327Z,99772.06
2019-05-11T21:09:51.145Z,99772.54
2019-05-11T21:12:18.945Z,99776.66
2019-05-11T21:14:48.500Z,99776.64
2019-05-11T21:17:18.223Z,99782.22
2019-05-11T21:19:47.913Z,99781.41
2019-05-11T21:22:15.715Z,99789.46
2019-05-11T21:24:44.619Z,99785.02
2019-05-11T21:27:12.489Z,99783.55
2019-05-11T21:29:40.339Z,99784.05
2019-05-11T21:32:08.192Z,99787.97
2019-05-11T21:34:38.214Z,99792.73
2019-05-11T21:37:07.727Z,99794.73
2019-05-11T21:39:35.287Z,99795.05
2019-05-11T21:42:03.061Z,99802.41
2019-05-11T21:44:30.826Z,99809.33
2019-05-11T21:46:58.616Z,99805.36
2019-05-11T21:49:26.353Z,99811.47
2019-05-11T21:52:04.216Z,99813.47
2019-05-11T21:54:23.959Z,99821.19
2019-05-11T21:56:51.751Z,99831.04
2019-05-11T21:59:19.530Z,99833.98
2019-05-11T22:01:48.547Z,99841.21
2019-05-11T22:04:16.173Z,99850.91
2019-05-11T22:06:43.947Z,99845.30
2019-05-11T22:09:11.781Z,99848.73
2019-05-11T22:11:44.786Z,99856.29
2019-05-11T22:14:12.539Z,99861.88
2019-05-11T22:16:40.337Z,99861.71
2019-05-11T22:19:08.902Z,99861.55
2019-05-11T22:21:37.058Z,99861.22
2019-05-11T22:24:04.797Z,99869.27
2019-05-11T22:26:32.591Z,99869.25
2019-05-11T22:29:00.313Z,99877.18
2019-05-11T22:31:28.330Z,99878.98
2019-05-11T22:33:58.173Z,99886.05
2019-05-11T22:36:28.087Z,99890.16
2019-05-11T22:38:55.548Z,99892.28
2019-05-11T22:41:24.089Z,99888.83
2019-05-11T22:43:51.893Z,99889.00
2019-05-11T22:46:19.626Z,99895.41
2019-05-11T22:48:48.971Z,99902.18
2019-05-11T22:51:18.349Z,99904.95
2019-05-11T22:53:47.990Z,99903.97
2019-05-11T22:56:17.571Z,99909.08
2019-05-11T22:58:49.686Z,99910.06
2019-05-11T23:01:17.812Z,99909.06
2019-05-11T23:03:47.448Z,99908.39
2019-05-11T23:06:14.908Z,99913.80
2019-05-11T23:08:43.100Z,99916.08
2019-05-11T23:11:10.865Z,99919.83
2019-05-11T23:13:38.688Z,99926.92
2019-05-11T23:16:08.067Z,99929.56
2019-05-11T23:18:36.157Z,99927.59
2019-05-11T23:21:05.784Z,99934.49
2019-05-11T23:23:33.569Z,99938.72
2019-05-11T23:26:01.300Z,99938.75
2019-05-11T23:28:29.124Z,99944.16
2019-05-11T23:30:58.247Z,99950.58
2019-05-11T23:33:27.939Z,99954.84
2019-05-11T23:35:55.866Z,99959.28
2019-05-11T23:38:23.567Z,99961.22
2019-05-11T23:40:51.388Z,99963.84
2019-05-11T23:43:19.401Z,99969.78
2019-05-11T23:45:47.134Z,99975.22
2019-05-11T23:48:14.957Z,99977.19
2019-05-11T23:50:42.747Z,99978.79
2019-05-11T23:53:10.701Z,99978.92
2019-05-11T23:55:38.445Z,99975.17
2019-05-11T23:58:08.283Z,99979.13
